Time;durP1;ratioP1;P1;durP2;ratioP2;P2;SDS_P1;SDS_P2;PMS_P1;PMS_P2;Temp;Humidity;BMP_temperature;BMP_pressure;BME280_temperature;BME280_humidity;BME280_pressure;Samples;Min_cycle;Max_cycle;Signal;HPM_P1;HPM_P2
2022/07/31 00:00:39;;;;;;;2.33;2.23;;;24.50;45.80;;;;;;5062737;28;20436;-62
2022/07/31 00:03:05;;;;;;;2.50;2.40;;;24.50;45.80;;;;;;5061036;28;20453;-63
2022/07/31 00:05:31;;;;;;;2.00;1.90;;;24.50;45.80;;;;;;5061109;28;20432;-63
2022/07/31 00:07:57;;;;;;;2.20;2.10;;;24.50;45.90;;;;;;5061361;28;20433;-67
2022/07/31 00:10:25;;;;;;;2.40;2.30;;;24.50;45.90;;;;;;5061406;28;20797;-71
2022/07/31 00:12:51;;;;;;;2.50;2.40;;;24.50;45.80;;;;;;5065340;28;20484;-62
2022/07/31 00:15:17;;;;;;;2.60;2.50;;;24.50;45.80;;;;;;5063027;28;21011;-79
2022/07/31 00:17:43;;;;;;;3.50;2.30;;;24.50;46.00;;;;;;5067762;28;20204;-59
2022/07/31 00:20:14;;;;;;;2.53;2.43;;;24.50;45.90;;;;;;5063529;28;20469;-84
2022/07/31 00:22:41;;;;;;;1.93;1.83;;;24.50;45.90;;;;;;5059657;28;20437;-66
2022/07/31 00:25:09;;;;;;;2.43;2.33;;;24.50;46.70;;;;;;5058897;28;20441;-60
2022/07/31 00:27:35;;;;;;;2.80;2.70;;;24.50;45.80;;;;;;5063607;28;20546;-80
2022/07/31 00:30:01;;;;;;;2.47;2.37;;;24.50;45.90;;;;;;5070847;28;20509;-85
2022/07/31 00:32:27;;;;;;;2.47;2.37;;;24.50;45.90;;;;;;5072321;28;20354;-69
2022/07/31 00:34:52;;;;;;;2.43;2.23;;;24.50;45.90;;;;;;5065759;28;20333;-64
2022/07/31 00:37:18;;;;;;;2.60;2.50;;;24.50;46.00;;;;;;5057718;28;20220;-64
2022/07/31 00:39:43;;;;;;;2.37;2.17;;;24.50;46.00;;;;;;5060239;28;20212;-61
2022/07/31 00:42:23;;;;;;;2.43;2.33;;;24.50;45.90;;;;;;5065769;28;20682;-84
2022/07/31 00:44:49;;;;;;;2.53;2.43;;;24.50;45.90;;;;;;5070520;28;20587;-66
2022/07/31 00:47:16;;;;;;;2.83;2.63;;;24.50;45.90;;;;;;5063265;28;20420;-64
2022/07/31 00:49:42;;;;;;;2.70;2.60;;;24.50;45.90;;;;;;5070513;28;20440;-59
2022/07/31 00:52:07;;;;;;;2.43;2.33;;;24.50;45.90;;;;;;5062376;28;20433;-65
2022/07/31 00:54:33;;;;;;;2.70;2.60;;;24.50;45.90;;;;;;5061065;28;20295;-66
2022/07/31 00:56:59;;;;;;;2.47;2.37;;;24.50;45.90;;;;;;5061783;28;21462;-59
2022/07/31 00:59:27;;;;;;;2.53;2.43;;;24.50;45.90;;;;;;5068014;28;20966;-63
2022/07/31 01:01:53;;;;;;;2.47;2.37;;;24.50;46.00;;;;;;5067734;28;20177;-68
2022/07/31 01:04:19;;;;;;;2.53;2.43;;;24.50;45.90;;;;;;5060539;28;20522;-67
2022/07/31 01:06:45;;;;;;;2.50;2.40;;;24.50;46.70;;;;;;5066987;28;20924;-62
2022/07/31 01:09:13;;;;;;;2.53;2.43;;;24.50;45.90;;;;;;5066537;28;20212;-64
2022/07/31 01:11:49;;;;;;;2.50;2.40;;;24.50;45.90;;;;;;5067255;28;20540;-67
2022/07/31 01:14:18;;;;;;;2.40;2.30;;;24.50;46.00;;;;;;5066807;28;20550;-67
2022/07/31 01:16:47;;;;;;;2.40;2.30;;;24.50;46.00;;;;;;5071466;28;20446;-61
2022/07/31 01:19:52;;;;;;;2.70;2.60;;;24.50;46.10;;;;;;5065143;28;21017;-78
2022/07/31 01:22:42;;;;;;;2.40;2.30;;;24.50;45.90;;;;;;5004612;28;20475;-67
2022/07/31 01:25:16;;;;;;;2.33;2.23;;;24.50;46.00;;;;;;5009396;28;20436;-58
2022/07/31 01:28:09;;;;;;;2.20;2.10;;;24.50;46.00;;;;;;5044185;28;20456;-62
2022/07/31 01:30:42;;;;;;;2.90;2.80;;;24.50;46.00;;;;;;5074762;28;20438;-79
2022/07/31 01:33:16;;;;;;;2.30;2.20;;;24.50;45.90;;;;;;5067869;28;20581;-83
2022/07/31 01:35:50;;;;;;;2.47;2.37;;;24.50;46.00;;;;;;5066560;28;20437;-59
2022/07/31 01:38:28;;;;;;;2.90;2.80;;;24.50;46.00;;;;;;5063336;28;20413;-70
2022/07/31 01:41:01;;;;;;;2.50;2.40;;;24.50;46.00;;;;;;5062049;28;20471;-76
2022/07/31 01:43:42;;;;;;;2.47;2.27;;;24.50;46.00;;;;;;5063284;28;20853;-69
2022/07/31 01:46:14;;;;;;;2.50;2.40;;;24.50;46.00;;;;;;5071505;28;20456;-68
2022/07/31 01:48:41;;;;;;;2.60;2.40;;;24.50;46.00;;;;;;5069039;28;20433;-69
2022/07/31 01:51:09;;;;;;;3.03;2.60;;;24.50;46.00;;;;;;5064466;28;20529;-73
2022/07/31 01:53:37;;;;;;;2.70;2.60;;;24.50;46.00;;;;;;5061675;28;20601;-69
2022/07/31 01:56:04;;;;;;;2.53;2.40;;;24.50;46.00;;;;;;5067673;28;20966;-71
2022/07/31 01:58:36;;;;;;;2.43;2.33;;;24.50;46.00;;;;;;5066147;28;20437;-64
2022/07/31 02:01:07;;;;;;;2.40;2.30;;;24.50;46.00;;;;;;5066659;28;20460;-62
2022/07/31 02:03:35;;;;;;;2.70;2.60;;;24.50;46.00;;;;;;5068528;28;20443;-62
2022/07/31 02:06:02;;;;;;;2.43;2.33;;;24.50;46.00;;;;;;5067336;28;20442;-83
2022/07/31 02:08:29;;;;;;;2.30;2.20;;;24.50;46.10;;;;;;5068849;28;20425;-59
2022/07/31 02:10:56;;;;;;;2.70;2.60;;;24.50;46.00;;;;;;5068037;28;20524;-66
2022/07/31 02:13:23;;;;;;;3.23;2.73;;;24.50;46.00;;;;;;5068238;28;20501;-67
2022/07/31 02:15:50;;;;;;;2.40;2.30;;;24.50;46.10;;;;;;5064632;28;20787;-77
2022/07/31 02:18:16;;;;;;;2.60;2.50;;;24.50;46.00;;;;;;5071969;28;20482;-69
2022/07/31 02:20:44;;;;;;;2.57;2.47;;;24.50;46.00;;;;;;5060254;28;20548;-83
2022/07/31 02:23:10;;;;;;;2.57;2.47;;;24.50;46.10;;;;;;5060702;28;20445;-64
2022/07/31 02:25:37;;;;;;;2.47;2.37;;;24.50;46.00;;;;;;5066493;28;20426;-59
2022/07/31 02:28:14;;;;;;;2.43;2.33;;;24.50;46.00;;;;;;5064895;28;20485;-59
2022/07/31 02:30:42;;;;;;;2.30;2.20;;;24.50;46.00;;;;;;5061261;28;20435;-71
2022/07/31 02:33:15;;;;;;;3.00;2.70;;;24.50;46.00;;;;;;5071581;28;20557;-65
2022/07/31 02:35:44;;;;;;;2.63;2.53;;;24.50;46.00;;;;;;5065610;28;20532;-63
2022/07/31 02:38:11;;;;;;;2.60;2.50;;;24.50;46.00;;;;;;5060851;28;20453;-84
2022/07/31 02:40:38;;;;;;;2.40;2.30;;;24.50;46.00;;;;;;5058164;28;20422;-77
2022/07/31 02:43:05;;;;;;;3.40;2.40;;;24.50;46.00;;;;;;5062400;28;20576;-66
2022/07/31 02:45:31;;;;;;;2.40;2.30;;;24.50;46.00;;;;;;5064698;28;20417;-75
2022/07/31 02:47:57;;;;;;;2.40;2.30;;;24.50;46.00;;;;;;5070772;28;20427;-59
2022/07/31 02:50:23;;;;;;;2.50;2.40;;;24.50;46.00;;;;;;5065754;28;20441;-73
2022/07/31 02:52:48;;;;;;;2.67;2.57;;;24.50;46.00;;;;;;5061595;28;20333;-71
2022/07/31 02:55:16;;;;;;;2.97;2.87;;;24.50;46.00;;;;;;5061420;28;20896;-68
2022/07/31 02:57:42;;;;;;;2.60;2.50;;;24.50;46.00;;;;;;5065561;28;20223;-62
2022/07/31 03:00:22;;;;;;;2.43;2.33;;;24.50;46.00;;;;;;5072385;28;20464;-63
2022/07/31 03:02:49;;;;;;;2.60;2.50;;;24.50;46.10;;;;;;5067654;28;20437;-74
2022/07/31 03:05:15;;;;;;;2.90;2.80;;;24.50;46.00;;;;;;5061224;28;20433;-69
2022/07/31 03:07:42;;;;;;;2.80;2.70;;;24.50;46.10;;;;;;5061106;28;20438;-69
2022/07/31 03:10:09;;;;;;;2.80;2.60;;;24.50;46.00;;;;;;5062675;28;20829;-72
2022/07/31 03:12:38;;;;;;;2.50;2.40;;;24.50;46.10;;;;;;5058788;28;20428;-82
2022/07/31 03:15:10;;;;;;;2.70;2.60;;;24.50;46.10;;;;;;5059990;28;20441;-61
2022/07/31 03:17:37;;;;;;;2.63;2.53;;;24.50;46.00;;;;;;5069899;28;20427;-58
2022/07/31 03:20:05;;;;;;;2.60;2.50;;;24.50;46.00;;;;;;5062146;28;20847;-59
2022/07/31 03:22:31;;;;;;;2.70;2.60;;;24.50;46.00;;;;;;5062230;28;20559;-62
2022/07/31 03:24:56;;;;;;;2.27;2.17;;;24.50;46.00;;;;;;5065273;28;20429;-64
2022/07/31 03:27:22;;;;;;;3.00;2.90;;;24.50;46.00;;;;;;5062396;28;20185;-70
2022/07/31 03:29:48;;;;;;;2.83;2.73;;;24.50;46.00;;;;;;5064348;28;20196;-63
2022/07/31 03:32:14;;;;;;;2.90;2.80;;;24.50;46.00;;;;;;5062080;28;20184;-60
2022/07/31 03:34:40;;;;;;;2.43;2.33;;;24.50;46.00;;;;;;5068496;28;21437;-60
2022/07/31 03:37:05;;;;;;;2.60;2.50;;;24.50;46.10;;;;;;5067216;28;20532;-69
2022/07/31 03:39:31;;;;;;;2.53;2.30;;;24.50;46.10;;;;;;5061159;28;23052;-59
2022/07/31 03:41:57;;;;;;;2.63;2.53;;;24.50;46.10;;;;;;5061322;28;21428;-59
2022/07/31 03:44:24;;;;;;;3.30;3.10;;;24.50;46.10;;;;;;5061561;28;20281;-62
2022/07/31 03:46:51;;;;;;;2.60;2.50;;;24.50;46.20;;;;;;5062792;28;20437;-66
2022/07/31 03:49:17;;;;;;;2.87;2.77;;;24.50;46.00;;;;;;5072351;28;20448;-66
2022/07/31 03:51:42;;;;;;;2.30;2.20;;;24.50;46.00;;;;;;5065406;28;20426;-80
2022/07/31 03:54:08;;;;;;;3.10;2.90;;;24.40;46.00;;;;;;5065953;28;23661;-61
2022/07/31 03:56:35;;;;;;;2.47;2.37;;;24.50;46.00;;;;;;5061835;28;20193;-82
2022/07/31 03:59:02;;;;;;;2.80;2.70;;;24.50;46.00;;;;;;5065506;28;20184;-60
2022/07/31 04:01:27;;;;;;;2.40;2.30;;;24.50;46.10;;;;;;5066787;28;20519;-62
2022/07/31 04:03:59;;;;;;;2.60;2.50;;;24.50;46.10;;;;;;5069081;28;20787;-60
2022/07/31 04:06:25;;;;;;;2.63;2.53;;;24.50;46.00;;;;;;5068323;28;20227;-80
2022/07/31 04:08:51;;;;;;;2.70;2.60;;;24.50;46.00;;;;;;5065523;28;20450;-75
2022/07/31 04:11:16;;;;;;;2.70;2.60;;;24.50;46.00;;;;;;5065910;28;20305;-68
2022/07/31 04:13:42;;;;;;;2.80;2.70;;;24.50;46.80;;;;;;5064223;28;20212;-76
2022/07/31 04:16:08;;;;;;;2.73;2.63;;;24.50;46.10;;;;;;5060770;28;20608;-65
2022/07/31 04:18:33;;;;;;;2.63;2.53;;;24.50;46.10;;;;;;5066116;28;20177;-60
2022/07/31 04:20:59;;;;;;;2.47;2.37;;;24.50;46.10;;;;;;5068701;28;20255;-60
2022/07/31 04:23:25;;;;;;;3.00;2.70;;;24.50;46.10;;;;;;5065169;28;20193;-66
2022/07/31 04:25:52;;;;;;;2.83;2.73;;;24.50;46.10;;;;;;5063671;28;20208;-66
2022/07/31 04:28:17;;;;;;;2.80;2.70;;;24.50;46.10;;;;;;5064991;28;20547;-62
2022/07/31 04:30:43;;;;;;;2.60;2.50;;;24.50;46.10;;;;;;5067477;28;20426;-65
2022/07/31 04:33:08;;;;;;;2.57;2.37;;;24.40;46.00;;;;;;5060644;28;22507;-62
2022/07/31 04:35:34;;;;;;;2.83;2.73;;;24.50;46.10;;;;;;5068016;28;20267;-69
2022/07/31 04:38:00;;;;;;;2.60;2.50;;;24.50;46.10;;;;;;5064164;28;20173;-60
2022/07/31 04:40:26;;;;;;;2.57;2.47;;;24.40;46.00;;;;;;5060445;28;20181;-60
2022/07/31 04:42:53;;;;;;;3.17;2.97;;;24.50;46.10;;;;;;5063832;28;20181;-66
2022/07/31 04:45:18;;;;;;;2.80;2.70;;;24.50;46.10;;;;;;5059782;28;20271;-64
2022/07/31 04:47:45;;;;;;;2.70;2.60;;;24.50;46.10;;;;;;5064088;28;20429;-59
2022/07/31 04:50:10;;;;;;;2.80;2.70;;;24.50;46.10;;;;;;5066442;28;20288;-59
2022/07/31 04:52:36;;;;;;;2.57;2.47;;;24.50;46.10;;;;;;5064554;28;20474;-76
2022/07/31 04:55:02;;;;;;;3.00;2.80;;;24.50;46.10;;;;;;5062615;28;20212;-79
2022/07/31 04:57:27;;;;;;;2.90;2.70;;;24.40;46.00;;;;;;5060136;28;20193;-82
2022/07/31 04:59:53;;;;;;;2.60;2.50;;;24.50;46.20;;;;;;5059908;28;20453;-82
2022/07/31 05:02:19;;;;;;;2.67;2.57;;;24.40;46.00;;;;;;5058505;28;20292;-80
2022/07/31 05:04:44;;;;;;;2.67;2.57;;;24.40;46.00;;;;;;5058696;28;20201;-81
2022/07/31 05:07:10;;;;;;;3.00;2.90;;;24.50;46.10;;;;;;5070273;28;20188;-70
2022/07/31 05:09:35;;;;;;;2.93;2.83;;;24.40;45.90;;;;;;5061449;28;20184;-74
2022/07/31 05:12:02;;;;;;;2.20;2.10;;;24.50;46.10;;;;;;5062196;28;20203;-82
2022/07/31 05:14:27;;;;;;;2.30;2.20;;;24.40;45.90;;;;;;5064322;28;20817;-70
2022/07/31 05:16:53;;;;;;;2.57;2.47;;;24.40;46.00;;;;;;5063190;28;20451;-72
2022/07/31 05:19:18;;;;;;;2.70;2.60;;;24.50;46.10;;;;;;5059690;28;20208;-61
2022/07/31 05:21:45;;;;;;;2.57;2.47;;;24.50;46.00;;;;;;5068881;28;20718;-79
2022/07/31 05:24:10;;;;;;;2.90;2.80;;;24.40;46.00;;;;;;5063696;28;20346;-76
2022/07/31 05:26:37;;;;;;;2.30;2.20;;;24.50;46.00;;;;;;5061021;28;20425;-65
2022/07/31 05:29:03;;;;;;;3.27;2.40;;;24.40;46.00;;;;;;5062211;28;21927;-62
2022/07/31 05:31:29;;;;;;;2.50;2.40;;;24.40;46.00;;;;;;5059368;28;20441;-80
2022/07/31 05:33:57;;;;;;;2.60;2.50;;;24.40;46.00;;;;;;5056928;28;20462;-79
2022/07/31 05:36:24;;;;;;;2.57;2.37;;;24.40;46.00;;;;;;5065028;28;20193;-65
2022/07/31 05:38:50;;;;;;;2.73;2.63;;;24.40;46.00;;;;;;5064625;28;20429;-64
2022/07/31 05:41:16;;;;;;;2.40;2.27;;;24.50;46.00;;;;;;5059229;28;20860;-82
2022/07/31 05:43:42;;;;;;;2.40;2.27;;;24.40;46.10;;;;;;5069585;28;20186;-80
2022/07/31 05:46:08;;;;;;;2.67;2.57;;;24.50;46.10;;;;;;5062089;28;21303;-63
2022/07/31 05:48:34;;;;;;;3.07;2.97;;;24.50;46.10;;;;;;5066662;28;20437;-62
2022/07/31 05:51:01;;;;;;;3.03;2.83;;;24.50;46.10;;;;;;5062638;28;21325;-71
2022/07/31 05:53:26;;;;;;;2.80;2.63;;;24.40;45.90;;;;;;5072491;28;20462;-81
2022/07/31 05:55:52;;;;;;;2.50;2.40;;;24.40;45.90;;;;;;5064526;28;20432;-72
2022/07/31 05:58:19;;;;;;;2.40;2.30;;;24.50;46.10;;;;;;5064427;28;20192;-64
2022/07/31 06:00:46;;;;;;;2.40;2.30;;;24.40;46.00;;;;;;5064379;28;20269;-59
2022/07/31 06:03:12;;;;;;;2.60;2.50;;;24.50;46.00;;;;;;5067812;28;21951;-60
2022/07/31 06:05:39;;;;;;;2.90;2.80;;;24.40;46.00;;;;;;5062759;28;20432;-60
2022/07/31 06:08:05;;;;;;;2.70;2.60;;;24.40;45.90;;;;;;5068310;28;20425;-65
2022/07/31 06:10:31;;;;;;;2.53;2.43;;;24.40;45.90;;;;;;5065207;28;20852;-58
2022/07/31 06:12:56;;;;;;;2.60;2.50;;;24.40;46.00;;;;;;5064915;28;21679;-59
2022/07/31 06:15:22;;;;;;;2.20;2.10;;;24.40;46.00;;;;;;5063589;28;20623;-70
2022/07/31 06:17:48;;;;;;;2.60;2.47;;;24.40;46.00;;;;;;5064317;28;20260;-70
2022/07/31 06:20:13;;;;;;;2.20;2.10;;;24.50;46.10;;;;;;5069592;28;20252;-60
2022/07/31 06:22:42;;;;;;;2.63;2.53;;;24.40;46.00;;;;;;5062464;28;20193;-59
2022/07/31 06:25:09;;;;;;;2.43;2.33;;;24.40;46.00;;;;;;5073425;28;20737;-63
2022/07/31 06:27:35;;;;;;;2.30;2.20;;;24.40;46.00;;;;;;5062115;28;20654;-59
2022/07/31 06:30:02;;;;;;;2.50;2.40;;;24.40;46.10;;;;;;5067570;28;20952;-58
2022/07/31 06:32:28;;;;;;;2.23;2.13;;;24.40;46.00;;;;;;5063751;28;20576;-80
2022/07/31 06:34:53;;;;;;;2.30;2.20;;;24.40;46.00;;;;;;5063431;28;20487;-64
2022/07/31 06:37:19;;;;;;;2.30;2.20;;;24.40;46.00;;;;;;5068818;28;20636;-73
2022/07/31 06:39:44;;;;;;;2.27;2.17;;;24.40;46.00;;;;;;5067183;28;20184;-68
2022/07/31 06:42:10;;;;;;;2.80;2.70;;;24.40;46.00;;;;;;5066894;28;20207;-67
2022/07/31 06:44:36;;;;;;;2.30;2.20;;;24.40;46.00;;;;;;5067128;28;20191;-62
2022/07/31 06:47:01;;;;;;;2.50;2.40;;;24.40;46.00;;;;;;5066591;28;20173;-84
2022/07/31 06:49:27;;;;;;;2.20;2.10;;;24.40;46.00;;;;;;5063101;28;20190;-76
2022/07/31 06:51:53;;;;;;;2.03;1.93;;;24.40;46.00;;;;;;5063093;28;20483;-83
2022/07/31 06:54:19;;;;;;;2.20;2.10;;;24.40;46.00;;;;;;5071288;28;20212;-66
2022/07/31 06:56:44;;;;;;;2.20;2.10;;;24.40;46.00;;;;;;5067086;28;20258;-59
2022/07/31 06:59:10;;;;;;;2.50;2.40;;;24.40;46.00;;;;;;5067019;28;20181;-65
2022/07/31 07:01:36;;;;;;;2.13;2.03;;;24.40;46.00;;;;;;5065840;28;20556;-64
2022/07/31 07:04:03;;;;;;;2.10;2.00;;;24.50;46.10;;;;;;5073387;28;20262;-59
2022/07/31 07:06:29;;;;;;;2.70;2.60;;;24.40;46.00;;;;;;5071910;28;20197;-59
2022/07/31 07:08:54;;;;;;;2.10;2.00;;;24.40;46.00;;;;;;5079459;28;20434;-64
2022/07/31 07:11:20;;;;;;;2.70;2.50;;;24.40;46.00;;;;;;5081344;28;20264;-61
2022/07/31 07:13:45;;;;;;;2.20;2.10;;;24.40;46.00;;;;;;5084531;28;20209;-58
2022/07/31 07:16:13;;;;;;;2.17;2.07;;;24.40;46.00;;;;;;5068290;28;20631;-62
2022/07/31 07:18:38;;;;;;;2.20;2.10;;;24.40;46.00;;;;;;5062496;28;20600;-70
2022/07/31 07:21:04;;;;;;;2.40;2.30;;;24.40;46.00;;;;;;5075083;28;21015;-69
2022/07/31 07:23:29;;;;;;;1.93;1.83;;;24.40;46.00;;;;;;5078640;28;20186;-59
2022/07/31 07:25:56;;;;;;;2.00;1.90;;;24.40;46.00;;;;;;5075247;28;20268;-72
2022/07/31 07:28:22;;;;;;;2.10;2.00;;;24.40;46.00;;;;;;5075073;28;20193;-61
2022/07/31 07:30:48;;;;;;;2.30;2.20;;;24.40;46.00;;;;;;5068785;28;20438;-61
2022/07/31 07:33:14;;;;;;;2.27;2.17;;;24.40;46.00;;;;;;5068117;28;20492;-59
2022/07/31 07:35:41;;;;;;;2.23;2.13;;;24.40;45.90;;;;;;5068157;28;20520;-72
2022/07/31 07:38:07;;;;;;;2.10;2.00;;;24.40;45.90;;;;;;5063917;28;20193;-68
2022/07/31 07:40:32;;;;;;;2.00;1.90;;;24.40;46.00;;;;;;5065627;28;20445;-59
2022/07/31 07:42:58;;;;;;;1.70;1.60;;;24.40;46.00;;;;;;5064424;28;20181;-62
2022/07/31 07:45:24;;;;;;;2.40;2.13;;;24.40;46.00;;;;;;5064303;28;20194;-85
2022/07/31 07:47:50;;;;;;;2.10;2.00;;;24.40;46.00;;;;;;5063243;28;20177;-65
2022/07/31 07:50:16;;;;;;;2.13;2.03;;;24.40;46.00;;;;;;5060688;28;20955;-85
2022/07/31 07:52:42;;;;;;;3.20;2.50;;;24.40;46.00;;;;;;5061315;28;20188;-65
2022/07/31 07:55:08;;;;;;;2.00;1.90;;;24.40;46.00;;;;;;5066903;28;20212;-65
2022/07/31 07:57:35;;;;;;;2.20;2.10;;;24.40;46.00;;;;;;5068964;28;20788;-83
2022/07/31 08:00:04;;;;;;;2.03;1.93;;;24.40;46.00;;;;;;5058338;28;20178;-81
2022/07/31 08:02:30;;;;;;;2.33;2.17;;;24.40;46.00;;;;;;5062159;28;20459;-69
2022/07/31 08:04:55;;;;;;;2.00;1.90;;;24.40;46.00;;;;;;5065677;28;22484;-65
2022/07/31 08:07:29;;;;;;;2.20;2.10;;;24.40;46.00;;;;;;5064585;28;20903;-79
2022/07/31 08:09:56;;;;;;;1.80;1.70;;;24.40;45.90;;;;;;5063892;28;20201;-72
2022/07/31 08:12:21;;;;;;;2.80;1.90;;;24.40;46.00;;;;;;5072354;28;20476;-75
2022/07/31 08:14:47;;;;;;;2.00;1.90;;;24.40;46.00;;;;;;5063822;28;21343;-63
2022/07/31 08:17:14;;;;;;;1.90;1.80;;;24.40;45.90;;;;;;5061284;28;20663;-65
2022/07/31 08:19:40;;;;;;;6.30;2.57;;;24.40;45.90;;;;;;5063068;28;20437;-73
2022/07/31 08:22:06;;;;;;;1.77;1.67;;;24.40;45.90;;;;;;5058820;28;20274;-63
2022/07/31 08:24:32;;;;;;;1.70;1.60;;;24.40;45.90;;;;;;5060300;28;20440;-69
2022/07/31 08:29:42;;;;;;;1.67;1.57;;;24.40;45.90;;;;;;5064484;28;20486;-67
2022/07/31 08:32:08;;;;;;;2.10;2.00;;;24.40;45.90;;;;;;5059191;28;20856;-63
2022/07/31 08:34:33;;;;;;;1.80;1.70;;;24.40;45.90;;;;;;5060868;28;20585;-76
2022/07/31 08:36:59;;;;;;;1.90;1.80;;;24.40;45.90;;;;;;5061615;28;20540;-79
2022/07/31 08:39:24;;;;;;;1.90;1.80;;;24.40;45.90;;;;;;5057839;28;20200;-63
2022/07/31 08:41:50;;;;;;;1.83;1.73;;;24.40;45.90;;;;;;5066485;28;20181;-66
2022/07/31 08:44:16;;;;;;;1.90;1.80;;;24.40;45.90;;;;;;5061654;28;20392;-63
2022/07/31 08:46:43;;;;;;;1.70;1.60;;;24.40;45.90;;;;;;5060184;28;20188;-68
2022/07/31 08:49:10;;;;;;;1.90;1.80;;;24.40;45.90;;;;;;5062451;28;20223;-71
2022/07/31 08:51:38;;;;;;;2.00;1.90;;;24.40;46.00;;;;;;5060838;28;20920;-68
2022/07/31 08:54:09;;;;;;;1.80;1.70;;;24.40;45.90;;;;;;5062549;28;20955;-68
2022/07/31 08:56:36;;;;;;;1.63;1.53;;;24.40;45.90;;;;;;5067154;28;20995;-63
2022/07/31 08:59:03;;;;;;;2.23;1.73;;;24.40;45.90;;;;;;5065370;28;20433;-60
2022/07/31 09:01:28;;;;;;;1.70;1.60;;;24.40;45.90;;;;;;5062084;28;20422;-65
2022/07/31 09:03:55;;;;;;;2.00;1.87;;;24.40;45.90;;;;;;5063399;28;20445;-64
2022/07/31 09:06:20;;;;;;;2.00;1.90;;;24.40;45.90;;;;;;5064010;28;20185;-69
2022/07/31 09:08:46;;;;;;;1.60;1.50;;;24.40;45.90;;;;;;5065977;28;20449;-60
2022/07/31 09:11:13;;;;;;;1.70;1.60;;;24.40;45.80;;;;;;5061437;28;20189;-66
2022/07/31 09:13:50;;;;;;;1.70;1.60;;;24.40;45.80;;;;;;5074253;28;20215;-59
2022/07/31 09:16:16;;;;;;;1.63;1.53;;;24.40;45.80;;;;;;5063762;28;20600;-70
2022/07/31 09:18:42;;;;;;;1.60;1.50;;;24.40;45.80;;;;;;5059533;28;20484;-67
2022/07/31 09:21:08;;;;;;;1.70;1.60;;;24.40;45.80;;;;;;5071162;28;20289;-67
2022/07/31 09:23:46;;;;;;;1.70;1.60;;;24.40;45.80;;;;;;5062911;28;20177;-60
2022/07/31 09:26:11;;;;;;;2.03;1.93;;;24.40;45.80;;;;;;5062767;28;20425;-61
2022/07/31 09:28:44;;;;;;;1.57;1.47;;;24.40;45.90;;;;;;5068729;28;20787;-60
2022/07/31 09:31:12;;;;;;;2.07;1.97;;;24.40;45.80;;;;;;5069222;28;20688;-67
2022/07/31 09:33:43;;;;;;;1.70;1.60;;;24.40;45.80;;;;;;5072592;28;20454;-64
2022/07/31 09:36:09;;;;;;;1.70;1.60;;;24.40;45.90;;;;;;5068557;28;20512;-75
2022/07/31 09:38:38;;;;;;;1.63;1.53;;;24.40;45.90;;;;;;5070426;28;20424;-63
2022/07/31 09:41:20;;;;;;;1.70;1.60;;;24.40;45.80;;;;;;5063628;28;20421;-65
2022/07/31 09:44:01;;;;;;;1.80;1.70;;;24.40;45.80;;;;;;5072526;28;20622;-60
2022/07/31 09:46:49;;;;;;;1.70;1.60;;;24.40;45.80;;;;;;5065557;28;20429;-67
2022/07/31 09:49:15;;;;;;;1.70;1.60;;;24.40;45.80;;;;;;5072876;28;20429;-62
2022/07/31 09:51:43;;;;;;;1.83;1.73;;;24.40;45.80;;;;;;5070292;28;20440;-62
2022/07/31 09:54:24;;;;;;;1.50;1.40;;;24.40;45.80;;;;;;5072951;28;20461;-65
2022/07/31 09:56:49;;;;;;;1.97;1.87;;;24.40;45.80;;;;;;5066844;28;20638;-64
2022/07/31 09:59:16;;;;;;;1.70;1.60;;;24.40;45.80;;;;;;5073726;28;20908;-69
2022/07/31 10:01:45;;;;;;;1.77;1.67;;;24.40;45.80;;;;;;5068062;28;20208;-67
2022/07/31 10:04:11;;;;;;;2.00;1.90;;;24.40;45.80;;;;;;5062880;28;21714;-59
2022/07/31 10:06:38;;;;;;;1.90;1.80;;;24.40;45.80;;;;;;5064333;28;20426;-61
2022/07/31 10:09:06;;;;;;;1.60;1.50;;;24.40;45.90;;;;;;5068196;28;20438;-75
2022/07/31 10:11:32;;;;;;;1.50;1.40;;;24.40;46.60;;;;;;5066203;28;20915;-62
2022/07/31 10:14:02;;;;;;;1.63;1.53;;;24.40;45.80;;;;;;5070882;28;20464;-63
2022/07/31 10:16:31;;;;;;;1.60;1.50;;;24.40;45.80;;;;;;5066710;28;20430;-63
2022/07/31 10:19:10;;;;;;;1.60;1.50;;;24.40;45.80;;;;;;5062690;28;20888;-65
2022/07/31 10:21:39;;;;;;;1.70;1.60;;;24.40;45.80;;;;;;5061734;28;20884;-67
2022/07/31 10:24:08;;;;;;;1.70;1.60;;;24.40;45.80;;;;;;5068047;28;20429;-65
2022/07/31 10:26:34;;;;;;;1.60;1.50;;;24.40;45.90;;;;;;5067399;28;20441;-67
2022/07/31 10:29:01;;;;;;;1.83;1.70;;;24.40;45.90;;;;;;5063810;28;20947;-71
2022/07/31 10:31:26;;;;;;;1.70;1.60;;;24.40;45.90;;;;;;5070518;28;20473;-63
2022/07/31 10:33:54;;;;;;;1.70;1.60;;;24.40;45.90;;;;;;5068665;28;20543;-63
2022/07/31 10:36:34;;;;;;;1.90;1.80;;;24.40;45.90;;;;;;5066815;28;20180;-63
2022/07/31 10:39:15;;;;;;;1.93;1.83;;;24.40;45.90;;;;;;5063481;28;20437;-61
2022/07/31 10:42:14;;;;;;;1.73;1.63;;;24.40;45.90;;;;;;5071328;28;20429;-65
2022/07/31 10:44:57;;;;;;;1.60;1.50;;;24.40;45.90;;;;;;5071289;28;20437;-61
2022/07/31 10:47:26;;;;;;;1.70;1.60;;;24.40;45.90;;;;;;5067949;28;20498;-62
2022/07/31 10:49:51;;;;;;;1.80;1.70;;;24.40;45.90;;;;;;5063966;28;20430;-65
2022/07/31 10:52:35;;;;;;;1.93;1.83;;;24.40;45.90;;;;;;5061958;28;23089;-65
2022/07/31 10:55:12;;;;;;;1.80;1.70;;;24.40;45.90;;;;;;5073138;28;20204;-66
2022/07/31 10:57:38;;;;;;;1.80;1.70;;;24.40;45.90;;;;;;5067660;28;20467;-61
2022/07/31 11:00:12;;;;;;;1.80;1.70;;;24.40;45.90;;;;;;5066358;28;20525;-66
2022/07/31 11:02:38;;;;;;;1.67;1.57;;;24.40;45.90;;;;;;5071844;28;20548;-61
2022/07/31 11:05:12;;;;;;;1.80;1.70;;;24.40;45.90;;;;;;5064246;28;20948;-66
2022/07/31 11:07:43;;;;;;;1.60;1.50;;;24.40;45.90;;;;;;5062275;28;20177;-67
2022/07/31 11:10:17;;;;;;;1.90;1.80;;;24.40;45.90;;;;;;5064283;28;20437;-72
2022/07/31 11:12:43;;;;;;;2.03;1.93;;;24.40;45.90;;;;;;5066003;28;20468;-70
2022/07/31 11:15:21;;;;;;;1.97;1.87;;;24.50;46.00;;;;;;5071013;28;20805;-59
2022/07/31 11:17:47;;;;;;;1.70;1.60;;;24.40;45.90;;;;;;5071307;28;20435;-65
2022/07/31 11:20:28;;;;;;;1.90;1.80;;;24.40;46.00;;;;;;5061775;28;20429;-60
2022/07/31 11:23:00;;;;;;;2.17;2.07;;;24.40;46.70;;;;;;5065541;28;20460;-66
2022/07/31 11:25:30;;;;;;;1.80;1.70;;;24.40;46.00;;;;;;5062028;28;20445;-72
2022/07/31 11:28:08;;;;;;;1.83;1.73;;;24.40;46.00;;;;;;5063032;28;20436;-62
2022/07/31 11:30:34;;;;;;;2.10;2.00;;;24.40;46.00;;;;;;5068131;28;20422;-65
2022/07/31 11:33:01;;;;;;;1.90;1.80;;;24.40;46.00;;;;;;5072904;28;20423;-65
2022/07/31 11:35:29;;;;;;;1.80;1.70;;;24.40;46.00;;;;;;5065644;28;20433;-73
2022/07/31 11:37:56;;;;;;;1.80;1.70;;;24.50;46.10;;;;;;5066926;28;20525;-71
2022/07/31 11:40:22;;;;;;;1.87;1.77;;;24.40;46.00;;;;;;5066057;28;20421;-63
2022/07/31 11:42:48;;;;;;;2.00;1.77;;;24.50;46.10;;;;;;5058693;28;20453;-64
2022/07/31 11:45:14;;;;;;;1.90;1.80;;;24.50;46.10;;;;;;5061936;28;20430;-65
2022/07/31 11:47:45;;;;;;;2.10;2.00;;;24.50;46.10;;;;;;5069782;28;20192;-66
2022/07/31 11:50:12;;;;;;;1.80;1.70;;;24.40;46.00;;;;;;5067551;28;21520;-59
2022/07/31 11:52:42;;;;;;;2.27;2.17;;;24.40;46.00;;;;;;5061338;28;20437;-60
2022/07/31 11:55:10;;;;;;;2.17;2.07;;;24.50;46.30;;;;;;5069424;28;20470;-68
2022/07/31 11:57:37;;;;;;;1.83;1.73;;;24.50;46.20;;;;;;5063718;28;20883;-68
2022/07/31 12:00:11;;;;;;;2.30;2.20;;;24.50;46.20;;;;;;5061699;28;20425;-69
2022/07/31 12:02:44;;;;;;;2.10;2.00;;;24.50;46.20;;;;;;5067145;28;20520;-61
2022/07/31 12:05:12;;;;;;;1.80;1.70;;;24.50;46.20;;;;;;5065153;28;20421;-61
2022/07/31 12:07:42;;;;;;;1.80;1.70;;;24.50;46.30;;;;;;5063387;28;20434;-70
2022/07/31 12:10:10;;;;;;;2.00;1.90;;;24.50;46.30;;;;;;5064713;28;20435;-62
2022/07/31 12:12:36;;;;;;;1.87;1.77;;;24.50;46.30;;;;;;5064235;28;20560;-61
2022/07/31 12:15:13;;;;;;;1.80;1.70;;;24.50;46.30;;;;;;5072906;28;20485;-61
2022/07/31 12:17:39;;;;;;;2.00;1.90;;;24.50;46.20;;;;;;5078339;28;20444;-63
2022/07/31 12:20:06;;;;;;;1.97;1.87;;;24.50;46.30;;;;;;5067591;28;20509;-65
2022/07/31 12:22:31;;;;;;;2.00;1.90;;;24.50;46.30;;;;;;5061831;28;20176;-66
2022/07/31 12:25:00;;;;;;;2.20;2.10;;;24.50;46.30;;;;;;5063723;28;20436;-62
2022/07/31 12:27:26;;;;;;;2.00;1.90;;;24.50;46.30;;;;;;5066062;28;20224;-63
2022/07/31 12:29:52;;;;;;;2.00;1.90;;;24.50;47.10;;;;;;5063316;28;20930;-63
2022/07/31 12:32:25;;;;;;;2.00;1.90;;;24.50;46.30;;;;;;5061187;28;20195;-62
2022/07/31 12:35:01;;;;;;;1.77;1.67;;;24.50;46.30;;;;;;5069183;28;20257;-63
2022/07/31 12:37:27;;;;;;;2.10;2.00;;;24.50;46.20;;;;;;5063355;28;20938;-62
2022/07/31 12:39:54;;;;;;;2.10;2.00;;;24.50;46.30;;;;;;5061583;28;20437;-63
2022/07/31 12:42:30;;;;;;;1.90;1.80;;;24.50;46.30;;;;;;5064843;28;20181;-66
2022/07/31 12:44:58;;;;;;;2.43;2.23;;;24.50;46.30;;;;;;5062603;28;20441;-62
2022/07/31 12:47:25;;;;;;;2.03;1.93;;;24.50;46.30;;;;;;5061293;28;21209;-68
2022/07/31 12:49:52;;;;;;;2.10;2.00;;;24.50;46.30;;;;;;5067248;28;20563;-70
2022/07/31 12:52:18;;;;;;;2.03;1.93;;;24.50;46.30;;;;;;5069318;28;20439;-72
2022/07/31 12:54:44;;;;;;;2.30;2.20;;;24.50;46.30;;;;;;5069847;28;20469;-69